Time;durP1;ratioP1;P1;durP2;ratioP2;P2;SDS_P1;SDS_P2;PMS_P1;PMS_P2;Temp;Humidity;BMP_temperature;BMP_pressure;BME280_temperature;BME280_humidity;BME280_pressure;Samples;Min_cycle;Max_cycle;Signal;HPM_P1;HPM_P2
2022/05/23 00:01:19;;;;;;;0.43;0.43;;;;;;;;;;5015392;28;20028;-73
2022/05/23 00:03:49;;;;;;;1.17;0.82;;;;;;;;;;5015626;28;20061;-73
2022/05/23 00:06:17;;;;;;;1.00;0.90;;;;;;;;;;5015714;28;20021;-73
2022/05/23 00:08:43;;;;;;;0.30;0.30;;;;;;;;;;5014589;28;20029;-72
2022/05/23 00:11:09;;;;;;;1.73;1.27;;;;;;;;;;4997893;28;20084;-72
2022/05/23 00:13:39;;;;;;;0.70;0.70;;;;;;;;;;5015621;28;20030;-72
2022/05/23 00:16:07;;;;;;;0.30;0.30;;;;;;;;;;5014190;28;20030;-72
2022/05/23 00:18:32;;;;;;;2.35;0.98;;;;;;;;;;5014503;28;20029;-72
2022/05/23 00:20:58;;;;;;;0.85;0.50;;;;;;;;;;5015018;28;20041;-72
2022/05/23 00:23:23;;;;;;;1.20;0.90;;;;;;;;;;5015994;28;20096;-73
2022/05/23 00:25:49;;;;;;;1.35;1.25;;;;;;;;;;5008074;28;20340;-73
2022/05/23 00:28:14;;;;;;;0.90;0.85;;;;;;;;;;5014875;28;20470;-72
2022/05/23 00:30:40;;;;;;;0.70;0.43;;;;;;;;;;5013159;28;20060;-72
2022/05/23 00:35:56;;;;;;;0.60;0.60;;;;;;;;;;5010721;28;20100;-73
2022/05/23 00:38:24;;;;;;;1.60;0.87;;;;;;;;;;5007591;28;20061;-73
2022/05/23 00:40:49;;;;;;;0.75;0.45;;;;;;;;;;5012287;28;20322;-73
2022/05/23 00:43:19;;;;;;;1.70;1.08;;;;;;;;;;5011961;28;20030;-73
2022/05/23 00:45:49;;;;;;;1.40;1.15;;;;;;;;;;5013427;28;20104;-74
2022/05/23 00:48:16;;;;;;;1.10;0.90;;;;;;;;;;5014482;28;20025;-73
2022/05/23 00:50:45;;;;;;;1.50;1.17;;;;;;;;;;4997420;28;20026;-74
2022/05/23 00:53:10;;;;;;;0.65;0.65;;;;;;;;;;5017074;28;20041;-72
2022/05/23 00:55:40;;;;;;;0.80;0.77;;;;;;;;;;5003407;28;20451;-73
2022/05/23 00:58:15;;;;;;;3.95;1.30;;;;;;;;;;5014506;28;20022;-73
2022/05/23 01:00:42;;;;;;;0.57;0.57;;;;;;;;;;5010754;28;20022;-74
2022/05/23 01:03:11;;;;;;;4.65;1.02;;;;;;;;;;5030335;28;20438;-73
2022/05/23 01:05:39;;;;;;;1.77;1.25;;;;;;;;;;5014012;28;20061;-74
2022/05/23 01:08:05;;;;;;;1.10;0.77;;;;;;;;;;5015191;28;20018;-73
2022/05/23 01:10:31;;;;;;;1.88;1.35;;;;;;;;;;5013815;28;20517;-73
2022/05/23 01:12:57;;;;;;;0.85;0.77;;;;;;;;;;5014331;28;20117;-73
2022/05/23 01:15:28;;;;;;;1.05;0.90;;;;;;;;;;5011977;28;20113;-73
2022/05/23 01:18:18;;;;;;;0.55;0.55;;;;;;;;;;5006474;28;20116;-75
2022/05/23 01:20:45;;;;;;;3.30;1.13;;;;;;;;;;5004236;28;20022;-73
2022/05/23 01:23:32;;;;;;;1.30;0.60;;;;;;;;;;5015247;28;20053;-73
2022/05/23 01:25:57;;;;;;;3.08;1.13;;;;;;;;;;5005678;28;20462;-72
2022/05/23 01:28:23;;;;;;;1.25;1.13;;;;;;;;;;5011967;28;20030;-73
2022/05/23 01:30:48;;;;;;;3.60;1.05;;;;;;;;;;5012128;28;20030;-74
2022/05/23 01:33:14;;;;;;;0.95;0.70;;;;;;;;;;5006733;28;20030;-74
2022/05/23 01:35:42;;;;;;;0.35;0.35;;;;;;;;;;5007722;28;20026;-73
2022/05/23 01:38:09;;;;;;;3.40;0.68;;;;;;;;;;5012863;28;20570;-73
2022/05/23 01:40:34;;;;;;;2.05;1.58;;;;;;;;;;5014051;28;20040;-73
2022/05/23 01:43:00;;;;;;;0.70;0.68;;;;;;;;;;5013889;28;20160;-73
2022/05/23 01:45:31;;;;;;;0.93;0.88;;;;;;;;;;5013836;28;20149;-73
2022/05/23 01:47:57;;;;;;;0.25;0.25;;;;;;;;;;5012824;28;20443;-73
2022/05/23 01:50:24;;;;;;;0.95;0.93;;;;;;;;;;5011862;28;20040;-73
2022/05/23 01:52:53;;;;;;;1.40;0.50;;;;;;;;;;5013811;28;20032;-73
2022/05/23 01:55:19;;;;;;;2.58;1.83;;;;;;;;;;5013547;28;20030;-73
2022/05/23 01:57:45;;;;;;;5.35;0.82;;;;;;;;;;5013164;28;20387;-73
2022/05/23 02:02:55;;;;;;;0.30;0.30;;;;;;;;;;5012172;28;20437;-73
2022/05/23 02:05:25;;;;;;;2.20;1.75;;;;;;;;;;5012386;28;20101;-73
2022/05/23 02:07:51;;;;;;;1.40;0.75;;;;;;;;;;5012912;28;20026;-73
2022/05/23 02:10:19;;;;;;;0.85;0.60;;;;;;;;;;5013314;28;20044;-73
2022/05/23 02:12:49;;;;;;;1.02;0.63;;;;;;;;;;5013579;28;20371;-73
2022/05/23 02:15:16;;;;;;;1.45;0.90;;;;;;;;;;5013290;28;20344;-73
2022/05/23 02:17:43;;;;;;;2.30;1.20;;;;;;;;;;5012915;28;20025;-72
2022/05/23 02:20:10;;;;;;;0.77;0.68;;;;;;;;;;5013261;28;20049;-73
2022/05/23 02:22:35;;;;;;;1.13;0.73;;;;;;;;;;5013948;28;20124;-74
2022/05/23 02:25:01;;;;;;;0.73;0.73;;;;;;;;;;5012368;28;20106;-73
2022/05/23 02:27:27;;;;;;;1.33;1.23;;;;;;;;;;5014322;28;20087;-73
2022/05/23 02:29:53;;;;;;;1.02;0.75;;;;;;;;;;5013749;28;21979;-73
2022/05/23 02:32:18;;;;;;;0.60;0.60;;;;;;;;;;5012148;28;20026;-74
2022/05/23 02:34:43;;;;;;;0.60;0.60;;;;;;;;;;5012972;28;20026;-73
2022/05/23 02:37:11;;;;;;;1.38;1.27;;;;;;;;;;5013328;28;20026;-73
2022/05/23 02:39:37;;;;;;;0.52;0.50;;;;;;;;;;5013133;28;20058;-74
2022/05/23 02:42:03;;;;;;;1.70;1.35;;;;;;;;;;5013093;28;20061;-73
2022/05/23 02:44:28;;;;;;;0.63;0.63;;;;;;;;;;5012824;28;20339;-73
2022/05/23 02:46:54;;;;;;;4.28;1.33;;;;;;;;;;5013216;28;20030;-73
2022/05/23 02:49:20;;;;;;;2.13;0.88;;;;;;;;;;5013251;28;20037;-73
2022/05/23 02:51:45;;;;;;;1.15;0.47;;;;;;;;;;5011206;28;20033;-73
2022/05/23 02:54:11;;;;;;;0.88;0.77;;;;;;;;;;5011267;28;20513;-72
2022/05/23 02:56:36;;;;;;;1.55;0.68;;;;;;;;;;5013413;28;20498;-73
2022/05/23 02:59:02;;;;;;;0.68;0.68;;;;;;;;;;5011857;28;20443;-73
2022/05/23 03:01:30;;;;;;;1.52;0.75;;;;;;;;;;5012465;28;20022;-73
2022/05/23 03:03:55;;;;;;;0.90;0.65;;;;;;;;;;5016713;28;20037;-73
2022/05/23 03:06:20;;;;;;;3.97;1.33;;;;;;;;;;5016636;28;20017;-73
2022/05/23 03:08:48;;;;;;;0.52;0.35;;;;;;;;;;5015891;28;20072;-73
2022/05/23 03:11:14;;;;;;;1.27;0.77;;;;;;;;;;5011974;28;20049;-73
2022/05/23 03:13:39;;;;;;;2.17;1.52;;;;;;;;;;5016947;28;20439;-73
2022/05/23 03:16:12;;;;;;;0.65;0.60;;;;;;;;;;5013625;28;20101;-73
2022/05/23 03:18:38;;;;;;;3.65;1.42;;;;;;;;;;5015633;28;20026;-73
2022/05/23 03:21:08;;;;;;;1.10;1.00;;;;;;;;;;5016094;28;20033;-73
2022/05/23 03:29:05;;;;;;;0.82;0.73;;;;;;;;;;5015120;28;20378;-72
2022/05/23 03:31:31;;;;;;;1.20;0.77;;;;;;;;;;4999377;28;20026;-73
2022/05/23 03:33:56;;;;;;;0.45;0.45;;;;;;;;;;5015325;28;20518;-73
2022/05/23 03:36:22;;;;;;;0.38;0.38;;;;;;;;;;5015846;28;20025;-72
2022/05/23 03:38:47;;;;;;;1.05;0.52;;;;;;;;;;5015094;28;20354;-73
2022/05/23 03:41:17;;;;;;;1.02;1.00;;;;;;;;;;5015377;28;20026;-72
2022/05/23 03:43:43;;;;;;;2.33;1.25;;;;;;;;;;5016177;28;20040;-73
2022/05/23 03:46:13;;;;;;;0.77;0.75;;;;;;;;;;5015962;28;20030;-73
2022/05/23 03:48:39;;;;;;;0.65;0.65;;;;;;;;;;5014982;28;20450;-72
2022/05/23 03:51:06;;;;;;;0.88;0.88;;;;;;;;;;5014737;28;20052;-72
2022/05/23 03:53:35;;;;;;;8.68;0.90;;;;;;;;;;5015209;28;20092;-73
2022/05/23 03:56:03;;;;;;;1.45;0.88;;;;;;;;;;5015457;28;20108;-73
2022/05/23 03:58:28;;;;;;;2.63;0.80;;;;;;;;;;5013378;28;20040;-72
2022/05/23 04:01:06;;;;;;;1.60;0.85;;;;;;;;;;5015132;28;20022;-73
2022/05/23 04:03:31;;;;;;;1.30;0.50;;;;;;;;;;5014242;28;20033;-73
2022/05/23 04:05:59;;;;;;;0.55;0.20;;;;;;;;;;5014939;28;20037;-72
2022/05/23 04:08:25;;;;;;;1.10;0.85;;;;;;;;;;5015549;28;20107;-72
2022/05/23 04:10:50;;;;;;;1.02;0.90;;;;;;;;;;5014790;28;20097;-73
2022/05/23 04:13:15;;;;;;;1.02;0.77;;;;;;;;;;5014044;28;20030;-73
2022/05/23 04:15:41;;;;;;;1.02;0.93;;;;;;;;;;5015529;28;20026;-73
2022/05/23 04:18:06;;;;;;;0.50;0.50;;;;;;;;;;5014526;28;20125;-73
2022/05/23 04:20:34;;;;;;;0.85;0.57;;;;;;;;;;5011375;28;20098;-74
2022/05/23 04:22:59;;;;;;;0.95;0.93;;;;;;;;;;5015609;28;20371;-73
2022/05/23 04:25:25;;;;;;;1.05;0.88;;;;;;;;;;5013675;28;20498;-73
2022/05/23 04:27:50;;;;;;;1.17;0.65;;;;;;;;;;5014776;28;20041;-73
2022/05/23 04:30:15;;;;;;;0.82;0.82;;;;;;;;;;5014566;28;20104;-73
2022/05/23 04:35:25;;;;;;;0.63;0.63;;;;;;;;;;5015544;28;20072;-73
2022/05/23 04:37:52;;;;;;;0.68;0.68;;;;;;;;;;5015350;28;20118;-73
2022/05/23 04:40:21;;;;;;;0.68;0.68;;;;;;;;;;5014508;28;20017;-73
2022/05/23 04:42:47;;;;;;;0.40;0.40;;;;;;;;;;5015237;28;20044;-73
2022/05/23 04:45:13;;;;;;;1.63;0.82;;;;;;;;;;5013927;28;20026;-73
2022/05/23 04:50:22;;;;;;;0.52;0.50;;;;;;;;;;5013250;28;20477;-73
2022/05/23 04:52:48;;;;;;;0.40;0.40;;;;;;;;;;5015211;28;20124;-73
2022/05/23 04:55:15;;;;;;;0.57;0.57;;;;;;;;;;5014844;28;20036;-73
2022/05/23 04:57:42;;;;;;;5.68;1.85;;;;;;;;;;5012459;28;20053;-73
2022/05/23 05:00:10;;;;;;;0.93;0.80;;;;;;;;;;5014287;28;20045;-73
2022/05/23 05:02:37;;;;;;;0.60;0.47;;;;;;;;;;5012907;28;20022;-73
2022/05/23 05:05:03;;;;;;;1.05;0.73;;;;;;;;;;5013369;28;20104;-73
2022/05/23 05:07:28;;;;;;;1.75;0.80;;;;;;;;;;5014633;28;20036;-73
2022/05/23 05:09:54;;;;;;;0.35;0.35;;;;;;;;;;5014617;28;20037;-73
2022/05/23 05:12:21;;;;;;;1.48;1.10;;;;;;;;;;5029532;28;20363;-73
2022/05/23 05:14:47;;;;;;;0.68;0.68;;;;;;;;;;5013229;28;20037;-73
2022/05/23 05:17:15;;;;;;;0.50;0.38;;;;;;;;;;5029572;28;20479;-73
2022/05/23 05:19:40;;;;;;;0.55;0.55;;;;;;;;;;5014365;28;20033;-73
2022/05/23 05:22:05;;;;;;;0.75;0.30;;;;;;;;;;5014357;28;20049;-73
2022/05/23 05:24:34;;;;;;;2.22;1.23;;;;;;;;;;5012678;28;20049;-73
2022/05/23 05:27:02;;;;;;;0.70;0.70;;;;;;;;;;5013674;28;20328;-74
2022/05/23 05:29:31;;;;;;;1.15;1.05;;;;;;;;;;5012481;28;20386;-73
2022/05/23 05:31:56;;;;;;;0.52;0.50;;;;;;;;;;5013682;28;20044;-74
2022/05/23 05:34:25;;;;;;;0.90;0.50;;;;;;;;;;5013818;28;20447;-74
2022/05/23 05:36:59;;;;;;;2.10;1.08;;;;;;;;;;5013830;28;20033;-74
2022/05/23 05:39:27;;;;;;;0.40;0.40;;;;;;;;;;5015121;28;20092;-74
2022/05/23 05:42:03;;;;;;;0.40;0.25;;;;;;;;;;5013633;28;20022;-74
2022/05/23 05:44:32;;;;;;;2.13;1.23;;;;;;;;;;5012224;28;20062;-73
2022/05/23 05:47:00;;;;;;;20.27;4.97;;;;;;;;;;5012362;28;20030;-73
2022/05/23 05:49:29;;;;;;;15.10;3.53;;;;;;;;;;5013053;28;20386;-72
2022/05/23 05:51:56;;;;;;;2.90;0.95;;;;;;;;;;5011545;28;20152;-73
2022/05/23 05:54:23;;;;;;;0.75;0.63;;;;;;;;;;5013303;28;20127;-74
2022/05/23 05:56:50;;;;;;;0.65;0.65;;;;;;;;;;5012072;28;20018;-74
2022/05/23 05:59:15;;;;;;;0.85;0.82;;;;;;;;;;5013803;28;20104;-74
2022/05/23 06:01:41;;;;;;;2.03;1.65;;;;;;;;;;5011428;28;20117;-73
2022/05/23 06:04:06;;;;;;;0.52;0.52;;;;;;;;;;5012128;28;20072;-74
2022/05/23 06:12:00;;;;;;;1.42;0.98;;;;;;;;;;5011803;28;20371;-74
2022/05/23 06:14:25;;;;;;;1.05;0.57;;;;;;;;;;5012341;28;20026;-72
2022/05/23 06:16:53;;;;;;;1.00;0.50;;;;;;;;;;5012956;28;20037;-74
2022/05/23 06:19:19;;;;;;;1.10;0.98;;;;;;;;;;5013533;28;20026;-74
2022/05/23 06:21:45;;;;;;;0.52;0.52;;;;;;;;;;5013181;28;20165;-73
2022/05/23 06:24:12;;;;;;;1.98;1.40;;;;;;;;;;5012663;28;20429;-74
2022/05/23 06:26:37;;;;;;;0.80;0.50;;;;;;;;;;5013314;28;20038;-74
2022/05/23 06:29:02;;;;;;;1.45;1.05;;;;;;;;;;5012039;28;20348;-74
2022/05/23 06:31:28;;;;;;;0.55;0.45;;;;;;;;;;5013466;28;20029;-74
2022/05/23 06:33:53;;;;;;;2.13;1.33;;;;;;;;;;5013385;28;20030;-74
2022/05/23 06:36:18;;;;;;;0.63;0.63;;;;;;;;;;5011968;28;20096;-75
2022/05/23 06:38:44;;;;;;;0.43;0.43;;;;;;;;;;5016008;28;20029;-74
2022/05/23 06:41:10;;;;;;;0.65;0.65;;;;;;;;;;5010878;28;20018;-75
2022/05/23 06:43:37;;;;;;;0.30;0.25;;;;;;;;;;5017540;28;20037;-74
2022/05/23 06:46:07;;;;;;;0.50;0.43;;;;;;;;;;5014411;28;20040;-75
2022/05/23 06:48:34;;;;;;;0.85;0.50;;;;;;;;;;5011586;28;20037;-76
2022/05/23 06:50:59;;;;;;;0.57;0.40;;;;;;;;;;5014653;28;20432;-75
2022/05/23 06:53:25;;;;;;;4.15;1.35;;;;;;;;;;5014481;28;20037;-75
2022/05/23 06:55:53;;;;;;;1.33;0.80;;;;;;;;;;5016593;28;20092;-76
2022/05/23 06:58:21;;;;;;;0.50;0.50;;;;;;;;;;5014574;28;20436;-76
2022/05/23 07:00:48;;;;;;;2.17;1.13;;;;;;;;;;5011693;28;20037;-76
2022/05/23 07:03:14;;;;;;;0.52;0.47;;;;;;;;;;5015539;28;20057;-77
2022/05/23 07:13:56;;;;;;;1.48;1.00;;;;;;;;;;5017229;28;20371;-75
2022/05/23 07:16:22;;;;;;;0.57;0.57;;;;;;;;;;5032544;28;20025;-75
2022/05/23 07:18:48;;;;;;;0.68;0.50;;;;;;;;;;5017198;28;20099;-75
2022/05/23 07:21:17;;;;;;;5.20;0.55;;;;;;;;;;5015722;28;20022;-74
2022/05/23 07:23:46;;;;;;;3.42;0.77;;;;;;;;;;5015484;28;20083;-75
2022/05/23 07:26:16;;;;;;;1.50;0.90;;;;;;;;;;5015338;28;20026;-75
2022/05/23 07:28:43;;;;;;;1.58;1.33;;;;;;;;;;5015380;28;20037;-74
2022/05/23 07:31:09;;;;;;;0.52;0.52;;;;;;;;;;5015521;28;20030;-75
2022/05/23 07:33:34;;;;;;;0.32;0.32;;;;;;;;;;5016113;28;20037;-75
2022/05/23 07:36:01;;;;;;;0.77;0.60;;;;;;;;;;5016297;28;20028;-75
2022/05/23 07:38:28;;;;;;;0.47;0.30;;;;;;;;;;5017010;28;20026;-76
2022/05/23 07:40:54;;;;;;;0.50;0.50;;;;;;;;;;5015102;28;20034;-75
2022/05/23 07:43:20;;;;;;;1.13;0.30;;;;;;;;;;5015956;28;20105;-75
2022/05/23 07:45:46;;;;;;;3.40;1.65;;;;;;;;;;5015258;28;20021;-75
2022/05/23 07:48:11;;;;;;;0.25;0.25;;;;;;;;;;5015620;28;20036;-74
2022/05/23 07:50:37;;;;;;;1.08;0.60;;;;;;;;;;5015086;28;20034;-74
2022/05/23 08:01:14;;;;;;;0.35;0.35;;;;;;;;;;5012027;28;20097;-76
2022/05/23 08:03:40;;;;;;;0.40;0.40;;;;;;;;;;5014850;28;20061;-75
2022/05/23 08:06:05;;;;;;;0.40;0.40;;;;;;;;;;5015347;28;20033;-75
2022/05/23 08:08:31;;;;;;;3.15;0.65;;;;;;;;;;5014550;28;20049;-75
2022/05/23 08:10:57;;;;;;;0.40;0.40;;;;;;;;;;5014452;28;20026;-75
2022/05/23 08:13:23;;;;;;;0.22;0.22;;;;;;;;;;5015176;28;20026;-75
2022/05/23 08:15:48;;;;;;;0.47;0.47;;;;;;;;;;5013569;28;20087;-75
2022/05/23 08:18:18;;;;;;;0.65;0.65;;;;;;;;;;5011673;28;20026;-77
2022/05/23 08:20:46;;;;;;;0.70;0.70;;;;;;;;;;5014319;28;20029;-77
2022/05/23 08:23:11;;;;;;;0.30;0.30;;;;;;;;;;5012899;28;20022;-78
2022/05/23 08:25:37;;;;;;;0.32;0.32;;;;;;;;;;5015001;28;20369;-77
2022/05/23 08:28:03;;;;;;;0.30;0.30;;;;;;;;;;5014416;28;20431;-77
2022/05/23 08:30:28;;;;;;;121.10;20.05;;;;;;;;;;5006501;28;20017;-77
2022/05/23 08:32:56;;;;;;;1.08;0.98;;;;;;;;;;5014201;28;20038;-77
2022/05/23 08:35:27;;;;;;;1.02;0.85;;;;;;;;;;5006473;28;20052;-76
2022/05/23 08:37:55;;;;;;;21.73;3.97;;;;;;;;;;5014258;28;20354;-77
2022/05/23 08:40:25;;;;;;;1.10;0.50;;;;;;;;;;5013277;28;20091;-77
2022/05/23 08:42:53;;;;;;;1.42;0.50;;;;;;;;;;5012832;28;20109;-78
2022/05/23 08:45:41;;;;;;;4.10;2.85;;;;;;;;;;5012997;28;20336;-77
2022/05/23 08:48:34;;;;;;;0.63;0.43;;;;;;;;;;5014253;28;20037;-78
2022/05/23 08:51:12;;;;;;;0.40;0.40;;;;;;;;;;5007766;28;20053;-78
2022/05/23 08:53:43;;;;;;;0.20;0.20;;;;;;;;;;5014278;28;20038;-77
2022/05/23 08:56:20;;;;;;;0.30;0.30;;;;;;;;;;5013729;28;20050;-78
2022/05/23 08:58:53;;;;;;;0.30;0.30;;;;;;;;;;5010880;28;20068;-77
2022/05/23 09:01:24;;;;;;;0.30;0.30;;;;;;;;;;5012969;28;20558;-76
2022/05/23 09:03:57;;;;;;;0.57;0.57;;;;;;;;;;5014293;28;20332;-77
2022/05/23 09:06:31;;;;;;;0.47;0.30;;;;;;;;;;5010163;28;20029;-77
2022/05/23 09:09:12;;;;;;;0.22;0.22;;;;;;;;;;4995632;28;20044;-78
2022/05/23 09:11:42;;;;;;;0.40;0.40;;;;;;;;;;5010146;28;20037;-77
2022/05/23 09:14:10;;;;;;;3.13;0.40;;;;;;;;;;5014893;28;20025;-78
2022/05/23 09:16:40;;;;;;;0.57;0.52;;;;;;;;;;5013873;28;20040;-77
2022/05/23 09:19:12;;;;;;;1.27;0.65;;;;;;;;;;5014042;28;20474;-78
2022/05/23 09:24:21;;;;;;;0.30;0.30;;;;;;;;;;5007143;28;20040;-80
2022/05/23 09:26:47;;;;;;;0.30;0.30;;;;;;;;;;5013922;28;20037;-80
2022/05/23 09:29:13;;;;;;;0.63;0.63;;;;;;;;;;5013974;28;20021;-83
2022/05/23 09:31:49;;;;;;;0.38;0.38;;;;;;;;;;5001257;28;20033;-81
2022/05/23 09:34:29;;;;;;;0.47;0.40;;;;;;;;;;5001236;28;20026;-82
2022/05/23 09:36:57;;;;;;;0.30;0.30;;;;;;;;;;5010534;28;20105;-82
2022/05/23 09:39:24;;;;;;;5.00;1.60;;;;;;;;;;5011424;28;20070;-81
2022/05/23 09:47:44;;;;;;;;;;;;;;;;;;4996336;28;20041;-81
2022/05/23 09:50:25;;;;;;;0.90;0.57;;;;;;;;;;5001206;28;19915;-78
2022/05/23 09:52:52;;;;;;;1.00;0.65;;;;;;;;;;4998826;28;20049;-78
2022/05/23 09:55:31;;;;;;;0.57;0.57;;;;;;;;;;5004807;28;20034;-79
2022/05/23 09:57:59;;;;;;;0.73;0.50;;;;;;;;;;5006799;28;20354;-79
2022/05/23 10:00:24;;;;;;;0.52;0.38;;;;;;;;;;5003428;28;20026;-79
2022/05/23 10:03:01;;;;;;;0.80;0.53;;;;;;;;;;5006087;28;20030;-81
2022/05/23 10:05:39;;;;;;;0.40;0.40;;;;;;;;;;5003114;28;20364;-80
2022/05/23 10:08:14;;;;;;;14.75;1.58;;;;;;;;;;5012936;28;20080;-79
2022/05/23 10:10:56;;;;;;;2.08;0.95;;;;;;;;;;5013693;28;20034;-80
2022/05/23 10:13:34;;;;;;;;;;;;;;;;;;5009558;28;20026;-80
2022/05/23 10:16:01;;;;;;;0.30;0.30;;;;;;;;;;5017296;28;19909;-82
2022/05/23 10:18:34;;;;;;;1.20;0.70;;;;;;;;;;5011543;28;20072;-82
2022/05/23 10:21:00;;;;;;;0.35;0.22;;;;;;;;;;5012231;28;20075;-80
2022/05/23 10:23:33;;;;;;;4.78;1.38;;;;;;;;;;5031412;28;20044;-79
2022/05/23 10:26:08;;;;;;;2.53;0.57;;;;;;;;;;5016350;28;20025;-81
2022/05/23 10:28:44;;;;;;;1.38;0.63;;;;;;;;;;5014480;28;20052;-83
2022/05/23 10:31:17;;;;;;;1.38;0.85;;;;;;;;;;4999595;28;20037;-80
2022/05/23 10:33:44;;;;;;;0.20;0.20;;;;;;;;;;5013937;28;20068;-78
2022/05/23 10:36:42;;;;;;;0.73;0.45;;;;;;;;;;5012370;28;20124;-79
2022/05/23 10:42:11;;;;;;;0.80;0.75;;;;;;;;;;5002958;28;20466;-79
2022/05/23 10:44:48;;;;;;;1.35;0.68;;;;;;;;;;5008247;28;20116;-79
2022/05/23 10:47:48;;;;;;;4.35;1.23;;;;;;;;;;5016720;28;20079;-78
2022/05/23 10:50:37;;;;;;;1.65;0.77;;;;;;;;;;5016507;28;20038;-80
2022/05/23 10:53:21;;;;;;;0.50;0.50;;;;;;;;;;5017187;28;20037;-79
2022/05/23 10:56:15;;;;;;;1.08;0.43;;;;;;;;;;4997569;28;20042;-78
2022/05/23 10:58:58;;;;;;;0.35;0.30;;;;;;;;;;5006820;28;20092;-80
2022/05/23 11:01:46;;;;;;;0.20;0.20;;;;;;;;;;5007064;28;20105;-77
2022/05/23 11:04:45;;;;;;;3.72;1.00;;;;;;;;;;5016421;28;20056;-81
2022/05/23 11:07:13;;;;;;;0.55;0.45;;;;;;;;;;5012175;28;20122;-79
2022/05/23 11:10:03;;;;;;;2.70;0.40;;;;;;;;;;5032489;28;20352;-80
2022/05/23 11:12:37;;;;;;;0.55;0.30;;;;;;;;;;5008228;28;20109;-77
2022/05/23 11:15:40;;;;;;;0.75;0.70;;;;;;;;;;5017856;28;20029;-81
2022/05/23 11:18:27;;;;;;;1.13;0.88;;;;;;;;;;5007183;28;20105;-82
2022/05/23 11:21:00;;;;;;;0.05;0.05;;;;;;;;;;5012750;28;20036;-79
2022/05/23 11:23:45;;;;;;;0.50;0.40;;;;;;;;;;5012985;28;20045;-79
2022/05/23 11:26:18;;;;;;;0.70;0.57;;;;;;;;;;5013549;28;20050;-84
2022/05/23 11:34:30;;;;;;;0.30;0.30;;;;;;;;;;5025042;28;20446;-78
2022/05/23 11:39:51;;;;;;;1.30;0.88;;;;;;;;;;5016651;28;20049;-79
2022/05/23 11:42:30;;;;;;;0.35;0.32;;;;;;;;;;5014986;28;20044;-80
2022/05/23 11:47:59;;;;;;;0.65;0.65;;;;;;;;;;5011199;28;20072;-78
2022/05/23 11:50:30;;;;;;;1.38;0.93;;;;;;;;;;5014410;28;20041;-77
2022/05/23 11:53:20;;;;;;;0.30;0.30;;;;;;;;;;5015501;28;20080;-78
2022/05/23 11:55:52;;;;;;;0.40;0.40;;;;;;;;;;5010671;28;20281;-78
2022/05/23 11:58:26;;;;;;;2.78;0.50;;;;;;;;;;5015190;28;20041;-78
2022/05/23 12:01:06;;;;;;;0.40;0.30;;;;;;;;;;5014787;28;20025;-78
2022/05/23 12:03:58;;;;;;;0.50;0.50;;;;;;;;;;5014917;28;20065;-78
2022/05/23 12:06:24;;;;;;;0.60;0.60;;;;;;;;;;5009363;28;20570;-78
2022/05/23 12:08:58;;;;;;;1.40;0.60;;;;;;;;;;5015223;28;20105;-78
2022/05/23 12:11:31;;;;;;;0.32;0.32;;;;;;;;;;5014944;28;20022;-75
2022/05/23 12:14:21;;;;;;;0.13;0.13;;;;;;;;;;5015996;28;20395;-76
2022/05/23 12:16:56;;;;;;;0.22;0.22;;;;;;;;;;5015220;28;20037;-77
2022/05/23 12:19:49;;;;;;;0.55;0.35;;;;;;;;;;5016121;28;20036;-77
2022/05/23 12:22:32;;;;;;;0.82;0.47;;;;;;;;;;5016162;28;20030;-76
2022/05/23 12:25:09;;;;;;;3.10;1.13;;;;;;;;;;5014636;28;20037;-77
2022/05/23 12:27:41;;;;;;;0.30;0.25;;;;;;;;;;5015483;28;20097;-77
2022/05/23 12:30:22;;;;;;;0.35;0.35;;;;;;;;;;5014039;28;20105;-76
2022/05/23 12:32:54;;;;;;;1.85;0.82;;;;;;;;;;5015500;28;20041;-78
2022/05/23 12:35:27;;;;;;;2.28;0.85;;;;;;;;;;5014976;28;20032;-75
2022/05/23 12:38:20;;;;;;;1.50;0.70;;;;;;;;;;5014980;28;20091;-76
2022/05/23 12:40:47;;;;;;;0.30;0.30;;;;;;;;;;5015263;28;20655;-77
2022/05/23 12:43:30;;;;;;;0.30;0.25;;;;;;;;;;5014996;28;20030;-77
2022/05/23 12:46:10;;;;;;;0.15;0.15;;;;;;;;;;5014091;28;20037;-77
2022/05/23 12:49:00;;;;;;;1.02;0.55;;;;;;;;;;5014852;28;20040;-76
2022/05/23 12:51:50;;;;;;;0.75;0.30;;;;;;;;;;5014887;28;20440;-76
2022/05/23 12:54:44;;;;;;;1.00;0.60;;;;;;;;;;5014672;28;20021;-76
2022/05/23 12:57:22;;;;;;;1.42;0.70;;;;;;;;;;5031112;28;20041;-77
2022/05/23 13:00:03;;;;;;;3.03;0.50;;;;;;;;;;5015295;28;20421;-77
2022/05/23 13:02:45;;;;;;;0.30;0.30;;;;;;;;;;5013229;28;20029;-78
2022/05/23 13:05:27;;;;;;;0.50;0.40;;;;;;;;;;5026267;28;20037;-78
2022/05/23 13:08:02;;;;;;;3.80;0.65;;;;;;;;;;5014610;28;20095;-77
2022/05/23 13:10:37;;;;;;;0.17;0.17;;;;;;;;;;5015621;28;20034;-78
2022/05/23 13:13:12;;;;;;;0.40;0.40;;;;;;;;;;5014268;28;20026;-76
2022/05/23 13:15:38;;;;;;;1.48;1.05;;;;;;;;;;5015091;28;20470;-78
2022/05/23 13:23:39;;;;;;;0.57;0.57;;;;;;;;;;5013640;28;20048;-78
2022/05/23 13:26:13;;;;;;;0.32;0.32;;;;;;;;;;5011639;28;20070;-76
2022/05/23 13:28:43;;;;;;;0.80;0.52;;;;;;;;;;5013793;28;20030;-77
2022/05/23 13:31:35;;;;;;;0.68;0.47;;;;;;;;;;5013615;28;20486;-77
2022/05/23 13:34:03;;;;;;;0.25;0.25;;;;;;;;;;4996404;28;20062;-78
2022/05/23 13:36:41;;;;;;;0.22;0.22;;;;;;;;;;5004841;28;20022;-78
2022/05/23 13:39:14;;;;;;;0.47;0.47;;;;;;;;;;5014877;28;20451;-77
2022/05/23 13:41:43;;;;;;;0.73;0.52;;;;;;;;;;5014072;28;20034;-78
2022/05/23 13:44:25;;;;;;;0.63;0.45;;;;;;;;;;5013810;28;20026;-78
2022/05/23 13:46:58;;;;;;;1.08;0.70;;;;;;;;;;5013734;28;20026;-78
2022/05/23 13:49:31;;;;;;;0.40;0.40;;;;;;;;;;4997249;28;20021;-78
2022/05/23 13:51:59;;;;;;;0.75;0.75;;;;;;;;;;5014464;28;20034;-78
2022/05/23 13:54:38;;;;;;;1.25;0.70;;;;;;;;;;5013645;28;20033;-85
2022/05/23 13:57:09;;;;;;;1.08;0.60;;;;;;;;;;5015282;28;20026;-85
2022/05/23 13:59:39;;;;;;;0.55;0.52;;;;;;;;;;5014241;28;20026;-85
2022/05/23 14:02:10;;;;;;;0.20;0.17;;;;;;;;;;5013806;28;20030;-85
2022/05/23 14:04:42;;;;;;;0.77;0.75;;;;;;;;;;5013631;28;20444;-83
2022/05/23 14:07:10;;;;;;;0.47;0.20;;;;;;;;;;5014077;28;20061;-84
2022/05/23 14:09:48;;;;;;;0.38;0.30;;;;;;;;;;5014055;28;20025;-82
2022/05/23 14:12:21;;;;;;;0.82;0.40;;;;;;;;;;5003177;28;20084;-84
2022/05/23 14:14:59;;;;;;;1.13;0.45;;;;;;;;;;5028565;28;20402;-85
2022/05/23 14:17:31;;;;;;;1.73;0.55;;;;;;;;;;5029796;28;20025;-82
2022/05/23 14:20:32;;;;;;;1.65;1.40;;;;;;;;;;5013740;28;20080;-83
2022/05/23 14:23:10;;;;;;;0.52;0.52;;;;;;;;;;5014752;28;20113;-81
2022/05/23 14:25:57;;;;;;;1.17;0.80;;;;;;;;;;4995815;28;20039;-81
2022/05/23 14:28:24;;;;;;;0.88;0.63;;;;;;;;;;5012316;28;20052;-82
2022/05/23 14:31:03;;;;;;;0.30;0.30;;;;;;;;;;5017180;28;20053;-82
2022/05/23 14:33:36;;;;;;;0.80;0.80;;;;;;;;;;5014607;28;20034;-81
2022/05/23 14:36:21;;;;;;;1.90;1.27;;;;;;;;;;5013698;28;20080;-81
2022/05/23 14:38:46;;;;;;;0.73;0.73;;;;;;;;;;5014660;28;20049;-81
2022/05/23 14:41:15;;;;;;;3.35;0.57;;;;;;;;;;5012893;28;20045;-83
2022/05/23 14:43:40;;;;;;;4.07;1.27;;;;;;;;;;5014044;28;20033;-82
2022/05/23 14:46:16;;;;;;;1.58;0.93;;;;;;;;;;5013763;28;20343;-83
2022/05/23 14:49:00;;;;;;;1.95;0.95;;;;;;;;;;5029287;28;20030;-80
2022/05/23 14:51:32;;;;;;;0.90;0.50;;;;;;;;;;5006064;28;20109;-82
2022/05/23 14:56:42;;;;;;;0.95;0.68;;;;;;;;;;4997211;28;20044;-81
2022/05/23 15:02:26;;;;;;;0.20;0.20;;;;;;;;;;5007140;28;20044;-80
2022/05/23 15:04:59;;;;;;;1.05;0.60;;;;;;;;;;5010036;28;20021;-82
2022/05/23 15:07:28;;;;;;;0.80;0.50;;;;;;;;;;5004591;28;20033;-82
2022/05/23 15:09:57;;;;;;;1.77;1.15;;;;;;;;;;5014439;28;20030;-82
2022/05/23 15:12:26;;;;;;;1.02;0.50;;;;;;;;;;5015584;28;20033;-82
2022/05/23 15:14:54;;;;;;;0.77;0.77;;;;;;;;;;5015710;28;20026;-80
2022/05/23 15:17:24;;;;;;;0.40;0.40;;;;;;;;;;5016948;28;20036;-81
2022/05/23 15:19:54;;;;;;;0.47;0.47;;;;;;;;;;5013174;28;20140;-82
2022/05/23 15:22:27;;;;;;;0.35;0.35;;;;;;;;;;5016241;28;20034;-79
2022/05/23 15:24:53;;;;;;;0.52;0.30;;;;;;;;;;5016573;28;20105;-80
2022/05/23 15:27:24;;;;;;;1.02;0.90;;;;;;;;;;4996575;28;20471;-80
2022/05/23 15:29:51;;;;;;;2.73;1.20;;;;;;;;;;5015768;28;20105;-80
2022/05/23 15:32:16;;;;;;;3.90;0.88;;;;;;;;;;5015897;28;20058;-81
2022/05/23 15:34:45;;;;;;;0.80;0.80;;;;;;;;;;5005609;28;20559;-83
2022/05/23 15:37:13;;;;;;;0.73;0.63;;;;;;;;;;5025920;28;20462;-82
2022/05/23 15:39:40;;;;;;;6.55;1.33;;;;;;;;;;5035122;28;20025;-81
2022/05/23 15:42:12;;;;;;;0.73;0.73;;;;;;;;;;5034998;28;20029;-81
2022/05/23 15:44:38;;;;;;;2.67;1.77;;;;;;;;;;5036766;28;20529;-80
2022/05/23 15:47:09;;;;;;;1.13;1.02;;;;;;;;;;5034375;28;20029;-81
2022/05/23 15:49:35;;;;;;;1.17;1.08;;;;;;;;;;5015957;28;20112;-83
2022/05/23 15:52:03;;;;;;;3.10;1.67;;;;;;;;;;5015092;28;20122;-81
2022/05/23 15:54:31;;;;;;;3.45;1.60;;;;;;;;;;5015391;28;20045;-82
2022/05/23 15:56:59;;;;;;;0.70;0.70;;;;;;;;;;5022452;28;20036;-80
2022/05/23 15:59:27;;;;;;;0.70;0.70;;;;;;;;;;5035451;28;20028;-81
2022/05/23 16:01:53;;;;;;;1.27;0.95;;;;;;;;;;5035357;28;20022;-79
2022/05/23 16:04:18;;;;;;;1.67;1.50;;;;;;;;;;5020708;28;20030;-80
2022/05/23 16:06:44;;;;;;;1.33;1.15;;;;;;;;;;5016567;28;20033;-81
2022/05/23 16:09:12;;;;;;;0.73;0.73;;;;;;;;;;5023179;28;20018;-81
2022/05/23 16:11:50;;;;;;;1.30;1.13;;;;;;;;;;5035735;28;20048;-81
2022/05/23 16:14:15;;;;;;;3.35;1.35;;;;;;;;;;5010787;28;20117;-80
2022/05/23 16:16:48;;;;;;;1.30;1.15;;;;;;;;;;5022202;28;20385;-80